Sky Queen — 3EHV9 — position and weather

sailwx.info

Track history (hours):
 
Tides and Currents Weather Stations Pressure Air Temp Water Temp Dewpoint Dewpoint Depression Visibility Wind Speed Wind Dir Waves Ship Positions

Sky Queen

Last reported at 2018-Apr-24 11:22 UTC. Time now 2018-Apr-25 20:24 UTC.
Position N 37°45' E 121°49'.

Length 89 m; draft 3.8 m.

Type: Cargo ship. MMSI: 372259000.

Date/timePositionNaut miles runAvg speedWind from/ knotsBaromVisibWave heightAir tempDewpointWater temp
2018-Apr-24 11:22N 37°45' E 121°49'4 9.1
2018-Apr-24 10:58N 37°46' E 121°45'4 9.1
2018-Apr-24 10:30N 37°48' E 121°40'4 9.0
2018-Apr-24 10:00N 37°49' E 121°35'5 9.0
2018-Apr-24 09:28N 37°51' E 121°29'4 8.9
2018-Apr-24 08:59N 37°52' E 121°24'9 9.1
2018-Apr-24 07:58N 37°55' E 121°12'6 9.3
2018-Apr-24 07:23N 37°56' E 121°06'5 9.6
2018-Apr-24 06:54N 37°57' E 121°00'4 9.9
2018-Apr-24 06:30N 37°58' E 120°55'610.4
2018-Apr-24 05:58N 37°59' E 120°48'511.0
2018-Apr-24 05:30N 38°01' E 120°42'510.9
2018-Apr-24 05:00N 38°01' E 120°35'510.6
2018-Apr-24 04:29N 38°02' E 120°28'5 9.6
2018-Apr-24 04:00N 37°60' E 120°23'5 9.7
2018-Apr-24 03:30N 37°56' E 120°19'5 9.7
2018-Apr-24 02:59N 37°52' E 120°15'5 9.6
2018-Apr-24 02:29N 37°48' E 120°12'5 9.4
2018-Apr-24 01:59N 37°43' E 120°11'5 9.1
2018-Apr-24 01:28N 37°39' E 120°14'4 5.9
2018-Apr-24 00:50N 37°39' E 120°18'0 0.1
2018-Apr-23 20:23N 37°40' E 120°18'0 0.0
2018-Apr-23 19:00N 37°40' E 120°18'0 0.0
2018-Apr-23 17:34N 37°40' E 120°18'0 0.0
2018-Apr-23 13:45N 37°40' E 120°18'0 0.0
2018-Apr-23 12:37N 37°40' E 120°18'0 0.3
2018-Apr-23 12:25N 37°40' E 120°18'2 4.5
2018-Apr-23 11:57N 37°39' E 120°16'3 7.3
2018-Apr-23 11:31N 37°39' E 120°12'1 2.5
2018-Apr-23 10:58N 37°40' E 120°11'1 1.8
2018-Apr-23 10:28N 37°41' E 120°11'0 0.0
2018-Apr-23 09:57N 37°41' E 120°11'0 0.0
2018-Apr-23 09:26N 37°41' E 120°11'0 0.1
2018-Apr-23 09:00N 37°41' E 120°11'0 0.1
2018-Apr-23 08:30N 37°41' E 120°11'0 0.1
2018-Apr-23 07:56N 37°41' E 120°11'0 0.0
2018-Apr-23 07:25N 37°41' E 120°11'0 0.0
2018-Apr-23 05:36N 37°41' E 120°11'0 0.0
2018-Apr-23 05:25N 37°41' E 120°11'0 0.0
2018-Apr-23 04:58N 37°41' E 120°11'0 0.0
2018-Apr-23 04:07N 37°41' E 120°11'0 0.0
2018-Apr-23 03:52N 37°41' E 120°11'0 0.0
2018-Apr-23 03:29N 37°41' E 120°11'0 0.0
2018-Apr-23 03:00N 37°41' E 120°11'0 0.0
2018-Apr-23 02:25N 37°41' E 120°11'0 0.0
2018-Apr-23 01:58N 37°41' E 120°11'0 0.0
2018-Apr-23 01:25N 37°41' E 120°11'0 0.0
2018-Apr-23 01:00N 37°41' E 120°11'0 0.0
2018-Apr-23 00:23N 37°41' E 120°11'0 0.0
2018-Apr-23 00:00N 37°41' E 120°11'0 0.0
2018-Apr-22 23:30N 37°41' E 120°11'0 0.0
2018-Apr-22 22:50N 37°41' E 120°11'0 0.0
2018-Apr-22 22:29N 37°41' E 120°11'0 0.0
2018-Apr-22 21:54N 37°41' E 120°11'0 0.1
2018-Apr-22 21:30N 37°41' E 120°11'0 0.1
2018-Apr-22 20:57N 37°41' E 120°11'0 0.0
2018-Apr-22 20:30N 37°41' E 120°11'0 0.1
2018-Apr-22 19:58N 37°41' E 120°11'0 0.0
2018-Apr-22 19:30N 37°41' E 120°11'0 0.1
2018-Apr-22 18:59N 37°41' E 120°11'0 0.1
2018-Apr-22 18:25N 37°41' E 120°11'0 0.0
2018-Apr-22 17:59N 37°41' E 120°11'0 0.0
2018-Apr-22 17:30N 37°41' E 120°11'0 0.0
2018-Apr-22 16:48N 37°41' E 120°11'0 0.0
2018-Apr-22 16:22N 37°41' E 120°11'0 0.0
2018-Apr-22 15:55N 37°41' E 120°11'0 0.0
2018-Apr-22 15:19N 37°41' E 120°11'0 0.0
2018-Apr-22 14:51N 37°41' E 120°11'0 0.0
2018-Apr-22 14:07N 37°41' E 120°11'0 0.0
2018-Apr-22 14:00N 37°41' E 120°11'0 0.0
2018-Apr-22 10:18N 37°41' E 120°11'0 0.0
2018-Apr-22 09:55N 37°41' E 120°11'0 0.0
2018-Apr-22 09:28N 37°41' E 120°11'0 0.0
2018-Apr-22 09:00N 37°41' E 120°11'0 0.1
2018-Apr-22 08:23N 37°41' E 120°11'0 0.1
2018-Apr-22 07:57N 37°41' E 120°11'0 0.0
2018-Apr-22 07:30N 37°41' E 120°11'0 0.0
2018-Apr-22 07:00N 37°41' E 120°11'0 0.0
2018-Apr-22 06:30N 37°41' E 120°11'0 0.0
2018-Apr-22 05:55N 37°41' E 120°11'0 0.0
2018-Apr-22 05:27N 37°41' E 120°11'0 0.1
2018-Apr-22 05:00N 37°41' E 120°11'0 0.1
2018-Apr-22 04:30N 37°41' E 120°11'0 0.0
2018-Apr-22 03:50N 37°41' E 120°11'0 0.0
2018-Apr-22 03:29N 37°41' E 120°11'0 0.0
2018-Apr-22 02:59N 37°41' E 120°11'0 0.1
2018-Apr-22 02:29N 37°41' E 120°11'0 0.1
2018-Apr-22 01:55N 37°41' E 120°11'0 0.0
2018-Apr-22 01:29N 37°41' E 120°11'0 0.1
2018-Apr-22 00:54N 37°41' E 120°11'0 0.1
2018-Apr-22 00:29N 37°41' E 120°11'0 0.1
2018-Apr-22 00:00N 37°41' E 120°11'0 0.0
2018-Apr-21 23:30N 37°41' E 120°11'0 0.1
2018-Apr-21 22:53N 37°41' E 120°11'0 0.0
2018-Apr-21 22:26N 37°41' E 120°11'0 0.0
2018-Apr-21 21:34N 37°41' E 120°11'0 0.0
2018-Apr-21 21:21N 37°41' E 120°11'0 0.0
2018-Apr-21 20:59N 37°41' E 120°11'0 0.0
2018-Apr-21 20:30N 37°41' E 120°11'0 0.0
2018-Apr-21 19:59N 37°41' E 120°11'0 0.0
2018-Apr-21 19:22N 37°41' E 120°11'0 0.0
2018-Apr-21 19:00N 37°41' E 120°11'0 0.1
2018-Apr-21 18:29N 37°41' E 120°11'0 0.1
2018-Apr-21 17:59N 37°41' E 120°11'0 0.0
2018-Apr-21 17:30N 37°41' E 120°11'0 0.0
2018-Apr-21 17:00N 37°41' E 120°11'0 0.0
2018-Apr-21 16:25N 37°41' E 120°11'0 0.0
2018-Apr-21 15:57N 37°41' E 120°11'0 0.0
2018-Apr-21 15:30N 37°41' E 120°11'0 0.1
2018-Apr-21 15:00N 37°41' E 120°11'3 5.8
2018-Apr-21 14:29N 37°44' E 120°11'5 9.1
2018-Apr-21 13:58N 37°48' E 120°11'5 9.5
2018-Apr-21 13:23N 37°54' E 120°13'4 9.4
2018-Apr-21 13:00N 37°57' E 120°15'5 9.5
2018-Apr-21 12:30N 38°01' E 120°18'5 9.6
2018-Apr-21 12:00N 38°05' E 120°21'5 9.6
2018-Apr-21 11:29N 38°09' E 120°25'  
Track history (hours):
 
Tides and Currents Weather Stations Pressure Air Temp Water Temp Dewpoint Dewpoint Depression Visibility Wind Speed Wind Dir Waves Ship Positions

Sky Queen

Last reported at 2018-Apr-24 11:22 UTC. Time now 2018-Apr-25 20:24 UTC.
Position N 37°45' E 121°49'.

Length 89 m; draft 3.8 m.

Type: Cargo ship. MMSI: 372259000.

Date/timePositionNaut miles runAvg speedWind from/ knotsBaromVisibWave heightAir tempDewpointWater temp
2018-Apr-24 11:22N 37°45' E 121°49'4 9.1
2018-Apr-24 10:58N 37°46' E 121°45'4 9.1
2018-Apr-24 10:30N 37°48' E 121°40'4 9.0
2018-Apr-24 10:00N 37°49' E 121°35'5 9.0
2018-Apr-24 09:28N 37°51' E 121°29'4 8.9
2018-Apr-24 08:59N 37°52' E 121°24'9 9.1
2018-Apr-24 07:58N 37°55' E 121°12'6 9.3
2018-Apr-24 07:23N 37°56' E 121°06'5 9.6
2018-Apr-24 06:54N 37°57' E 121°00'4 9.9
2018-Apr-24 06:30N 37°58' E 120°55'610.4
2018-Apr-24 05:58N 37°59' E 120°48'511.0
2018-Apr-24 05:30N 38°01' E 120°42'510.9
2018-Apr-24 05:00N 38°01' E 120°35'510.6
2018-Apr-24 04:29N 38°02' E 120°28'5 9.6
2018-Apr-24 04:00N 37°60' E 120°23'5 9.7
2018-Apr-24 03:30N 37°56' E 120°19'5 9.7
2018-Apr-24 02:59N 37°52' E 120°15'5 9.6
2018-Apr-24 02:29N 37°48' E 120°12'5 9.4
2018-Apr-24 01:59N 37°43' E 120°11'5 9.1
2018-Apr-24 01:28N 37°39' E 120°14'4 5.9
2018-Apr-24 00:50N 37°39' E 120°18'0 0.1
2018-Apr-23 20:23N 37°40' E 120°18'0 0.0
2018-Apr-23 19:00N 37°40' E 120°18'0 0.0
2018-Apr-23 17:34N 37°40' E 120°18'0 0.0
2018-Apr-23 13:45N 37°40' E 120°18'0 0.0
2018-Apr-23 12:37N 37°40' E 120°18'0 0.3
2018-Apr-23 12:25N 37°40' E 120°18'2 4.5
2018-Apr-23 11:57N 37°39' E 120°16'3 7.3
2018-Apr-23 11:31N 37°39' E 120°12'1 2.5
2018-Apr-23 10:58N 37°40' E 120°11'1 1.8
2018-Apr-23 10:28N 37°41' E 120°11'0 0.0
2018-Apr-23 09:57N 37°41' E 120°11'0 0.0
2018-Apr-23 09:26N 37°41' E 120°11'0 0.1
2018-Apr-23 09:00N 37°41' E 120°11'0 0.1
2018-Apr-23 08:30N 37°41' E 120°11'0 0.1
2018-Apr-23 07:56N 37°41' E 120°11'0 0.0
2018-Apr-23 07:25N 37°41' E 120°11'0 0.0
2018-Apr-23 05:36N 37°41' E 120°11'0 0.0
2018-Apr-23 05:25N 37°41' E 120°11'0 0.0
2018-Apr-23 04:58N 37°41' E 120°11'0 0.0
2018-Apr-23 04:07N 37°41' E 120°11'0 0.0
2018-Apr-23 03:52N 37°41' E 120°11'0 0.0
2018-Apr-23 03:29N 37°41' E 120°11'0 0.0
2018-Apr-23 03:00N 37°41' E 120°11'0 0.0
2018-Apr-23 02:25N 37°41' E 120°11'0 0.0
2018-Apr-23 01:58N 37°41' E 120°11'0 0.0
2018-Apr-23 01:25N 37°41' E 120°11'0 0.0
2018-Apr-23 01:00N 37°41' E 120°11'0 0.0
2018-Apr-23 00:23N 37°41' E 120°11'0 0.0
2018-Apr-23 00:00N 37°41' E 120°11'0 0.0
2018-Apr-22 23:30N 37°41' E 120°11'0 0.0
2018-Apr-22 22:50N 37°41' E 120°11'0 0.0
2018-Apr-22 22:29N 37°41' E 120°11'0 0.0
2018-Apr-22 21:54N 37°41' E 120°11'0 0.1
2018-Apr-22 21:30N 37°41' E 120°11'0 0.1
2018-Apr-22 20:57N 37°41' E 120°11'0 0.0
2018-Apr-22 20:30N 37°41' E 120°11'0 0.1
2018-Apr-22 19:58N 37°41' E 120°11'0 0.0
2018-Apr-22 19:30N 37°41' E 120°11'0 0.1
2018-Apr-22 18:59N 37°41' E 120°11'0 0.1
2018-Apr-22 18:25N 37°41' E 120°11'0 0.0
2018-Apr-22 17:59N 37°41' E 120°11'0 0.0
2018-Apr-22 17:30N 37°41' E 120°11'0 0.0
2018-Apr-22 16:48N 37°41' E 120°11'0 0.0
2018-Apr-22 16:22N 37°41' E 120°11'0 0.0
2018-Apr-22 15:55N 37°41' E 120°11'0 0.0
2018-Apr-22 15:19N 37°41' E 120°11'0 0.0
2018-Apr-22 14:51N 37°41' E 120°11'0 0.0
2018-Apr-22 14:07N 37°41' E 120°11'0 0.0
2018-Apr-22 14:00N 37°41' E 120°11'0 0.0
2018-Apr-22 10:18N 37°41' E 120°11'0 0.0
2018-Apr-22 09:55N 37°41' E 120°11'0 0.0
2018-Apr-22 09:28N 37°41' E 120°11'0 0.0
2018-Apr-22 09:00N 37°41' E 120°11'0 0.1
2018-Apr-22 08:23N 37°41' E 120°11'0 0.1
2018-Apr-22 07:57N 37°41' E 120°11'0 0.0
2018-Apr-22 07:30N 37°41' E 120°11'0 0.0
2018-Apr-22 07:00N 37°41' E 120°11'0 0.0
2018-Apr-22 06:30N 37°41' E 120°11'0 0.0
2018-Apr-22 05:55N 37°41' E 120°11'0 0.0
2018-Apr-22 05:27N 37°41' E 120°11'0 0.1
2018-Apr-22 05:00N 37°41' E 120°11'0 0.1
2018-Apr-22 04:30N 37°41' E 120°11'0 0.0
2018-Apr-22 03:50N 37°41' E 120°11'0 0.0
2018-Apr-22 03:29N 37°41' E 120°11'0 0.0
2018-Apr-22 02:59N 37°41' E 120°11'0 0.1
2018-Apr-22 02:29N 37°41' E 120°11'0 0.1
2018-Apr-22 01:55N 37°41' E 120°11'0 0.0
2018-Apr-22 01:29N 37°41' E 120°11'0 0.1
2018-Apr-22 00:54N 37°41' E 120°11'0 0.1
2018-Apr-22 00:29N 37°41' E 120°11'0 0.1
2018-Apr-22 00:00N 37°41' E 120°11'0 0.0
2018-Apr-21 23:30N 37°41' E 120°11'0 0.1
2018-Apr-21 22:53N 37°41' E 120°11'0 0.0
2018-Apr-21 22:26N 37°41' E 120°11'0 0.0
2018-Apr-21 21:34N 37°41' E 120°11'0 0.0
2018-Apr-21 21:21N 37°41' E 120°11'0 0.0
2018-Apr-21 20:59N 37°41' E 120°11'0 0.0
2018-Apr-21 20:30N 37°41' E 120°11'0 0.0
2018-Apr-21 19:59N 37°41' E 120°11'0 0.0
2018-Apr-21 19:22N 37°41' E 120°11'0 0.0
2018-Apr-21 19:00N 37°41' E 120°11'0 0.1
2018-Apr-21 18:29N 37°41' E 120°11'0 0.1
2018-Apr-21 17:59N 37°41' E 120°11'0 0.0
2018-Apr-21 17:30N 37°41' E 120°11'0 0.0
2018-Apr-21 17:00N 37°41' E 120°11'0 0.0
2018-Apr-21 16:25N 37°41' E 120°11'0 0.0
2018-Apr-21 15:57N 37°41' E 120°11'0 0.0
2018-Apr-21 15:30N 37°41' E 120°11'0 0.1
2018-Apr-21 15:00N 37°41' E 120°11'3 5.8
2018-Apr-21 14:29N 37°44' E 120°11'5 9.1
2018-Apr-21 13:58N 37°48' E 120°11'5 9.5
2018-Apr-21 13:23N 37°54' E 120°13'4 9.4
2018-Apr-21 13:00N 37°57' E 120°15'5 9.5
2018-Apr-21 12:30N 38°01' E 120°18'5 9.6
2018-Apr-21 12:00N 38°05' E 120°21'5 9.6
2018-Apr-21 11:29N 38°09' E 120°25'  

Dump ship's entire track history